Campina do Monte Alegre, Brazil
Current Conditions -  °F | °C
As of 1:00 PM on Tuesday 21 Oct 2014 (Local Time) from SBKP Reporting Station
Few Clouds Few Clouds  
Wind Chill: 73°   Ceiling: Unl
Heat Index: 73°   Visibility: 6mi
Dew Point: 50°   Wind: 18mph
Humidity: 44%   Direction: 130°SE
Pressure: 30.15"   Gusts: NA
Location:  23.58°S, 48.47°W
Report Text: SBKP 211500Z 13016KT 9999 FEW030 23/10 Q1021
Loading
Personal Weather Stations






























Interactive Weather Map
Tropical Storm Tracking
New forecast layout! Learn more

10-Day Weather Forecast

Advertisements
Track Severe Weather on mobile